createdAt,value
2019-06-25T00:01:57.603Z,76.90
2019-06-25T00:04:28.030Z,77.10
2019-06-25T00:06:58.422Z,77.20
2019-06-25T00:09:28.817Z,77.20
2019-06-25T00:11:59.219Z,77.30
2019-06-25T00:14:29.637Z,77.40
2019-06-25T00:17:00.373Z,77.40
2019-06-25T00:19:30.778Z,77.40
2019-06-25T00:22:01.187Z,77.50
2019-06-25T00:24:31.583Z,77.50
2019-06-25T00:27:01.959Z,77.60
2019-06-25T00:29:32.360Z,77.90
2019-06-25T00:32:02.731Z,77.80
2019-06-25T00:34:33.165Z,77.90
2019-06-25T00:37:03.569Z,78.10
2019-06-25T00:39:33.943Z,78.10
2019-06-25T00:42:04.338Z,78.20
2019-06-25T00:44:34.802Z,78.40
2019-06-25T00:47:05.230Z,78.50
2019-06-25T00:49:35.582Z,78.50
2019-06-25T00:52:06.055Z,78.50
2019-06-25T00:54:36.472Z,78.50
2019-06-25T00:57:06.867Z,78.50
2019-06-25T00:59:37.258Z,78.50
2019-06-25T01:02:26.638Z,78.60
2019-06-25T01:04:57.049Z,78.70
2019-06-25T01:07:27.578Z,78.80
2019-06-25T01:09:58.181Z,79.00
2019-06-25T01:12:28.709Z,79.30
2019-06-25T01:14:59.319Z,79.40
2019-06-25T01:17:29.974Z,79.50
2019-06-25T01:20:00.613Z,79.60
2019-06-25T01:22:31.371Z,79.70
2019-06-25T01:25:01.845Z,79.80
2019-06-25T01:27:32.250Z,79.80
2019-06-25T01:30:02.810Z,80.70
2019-06-25T01:32:33.251Z,79.70
2019-06-25T01:35:03.695Z,79.70
2019-06-25T01:37:34.621Z,79.80
2019-06-25T01:40:05.523Z,79.80
2019-06-25T01:42:35.928Z,79.80
2019-06-25T01:45:07.414Z,79.80
2019-06-25T01:47:37.931Z,80.00
2019-06-25T01:50:09.114Z,80.10
2019-06-25T01:52:39.545Z,80.10
2019-06-25T01:55:10.617Z,80.10
2019-06-25T01:57:41.014Z,81.00
2019-06-25T02:00:13.022Z,80.30
2019-06-25T02:02:43.440Z,80.30
2019-06-25T02:05:14.454Z,80.40
2019-06-25T02:07:44.913Z,80.50
2019-06-25T02:10:16.326Z,80.60
2019-06-25T02:12:46.746Z,80.50
2019-06-25T02:15:17.483Z,80.70
2019-06-25T02:17:47.879Z,80.70
2019-06-25T02:20:20.107Z,80.80
2019-06-25T02:22:50.477Z,80.80
2019-06-25T02:25:21.073Z,80.90
2019-06-25T02:27:52.069Z,80.80
2019-06-25T02:30:22.498Z,80.80
2019-06-25T02:32:52.876Z,80.90
2019-06-25T02:35:23.290Z,81.00
2019-06-25T02:37:53.674Z,81.10
2019-06-25T02:40:24.278Z,81.20
2019-06-25T02:42:54.713Z,81.30
2019-06-25T02:45:25.113Z,81.40
2019-06-25T02:47:55.491Z,81.40
2019-06-25T02:50:25.862Z,81.40
2019-06-25T02:52:56.305Z,81.30
2019-06-25T02:55:26.673Z,81.40
2019-06-25T02:57:57.106Z,81.50
2019-06-25T03:00:27.529Z,81.60
2019-06-25T03:02:57.955Z,81.40
2019-06-25T03:05:28.372Z,81.50
2019-06-25T03:07:58.784Z,81.50
2019-06-25T03:10:29.173Z,81.60
2019-06-25T03:12:59.538Z,81.60
2019-06-25T03:15:29.954Z,81.70
2019-06-25T03:18:00.323Z,81.70
2019-06-25T03:20:30.729Z,81.80
2019-06-25T03:23:01.165Z,81.80
2019-06-25T03:25:31.629Z,82.50
2019-06-25T03:28:02.064Z,81.80
2019-06-25T03:30:32.506Z,81.70
2019-06-25T03:33:02.889Z,81.70
2019-06-25T03:35:33.330Z,81.80
2019-06-25T03:38:03.726Z,81.70
2019-06-25T03:40:34.089Z,81.80
2019-06-25T03:43:05.033Z,81.80
2019-06-25T03:45:36.229Z,81.80
2019-06-25T03:48:06.632Z,81.90
2019-06-25T03:50:37.025Z,82.00
2019-06-25T03:53:08.443Z,82.00
2019-06-25T03:55:38.835Z,82.00
2019-06-25T03:58:09.226Z,82.10
2019-06-25T04:00:41.391Z,82.20
2019-06-25T04:03:11.797Z,82.30
2019-06-25T04:05:42.219Z,82.40
2019-06-25T04:08:12.646Z,82.40
2019-06-25T04:10:43.022Z,82.50
2019-06-25T04:13:13.451Z,82.60
2019-06-25T04:15:43.930Z,82.70
2019-06-25T04:18:14.297Z,82.80
2019-06-25T04:20:44.737Z,82.80
2019-06-25T04:23:15.197Z,82.90
2019-06-25T04:25:45.669Z,83.10
2019-06-25T04:28:16.498Z,83.30
2019-06-25T04:30:47.202Z,83.20
2019-06-25T04:33:18.408Z,83.40
2019-06-25T04:35:48.833Z,83.40
2019-06-25T04:38:19.220Z,83.50
2019-06-25T04:40:49.657Z,83.50
2019-06-25T04:43:20.095Z,83.60
2019-06-25T04:45:50.521Z,83.70
2019-06-25T04:48:20.896Z,83.80
2019-06-25T04:50:51.348Z,83.90
2019-06-25T04:53:21.770Z,84.10
2019-06-25T04:55:52.154Z,84.20
2019-06-25T04:58:22.863Z,84.30
2019-06-25T05:00:53.293Z,84.50
2019-06-25T05:03:23.727Z,84.60
2019-06-25T05:05:54.133Z,84.80
2019-06-25T05:08:24.667Z,84.80
2019-06-25T05:10:56.252Z,85.00
2019-06-25T05:13:26.673Z,85.10
2019-06-25T05:15:58.557Z,85.20
2019-06-25T05:18:29.821Z,85.40
2019-06-25T05:21:00.806Z,85.60
2019-06-25T05:23:32.117Z,85.60
2019-06-25T05:26:04.705Z,85.70
2019-06-25T05:28:35.145Z,85.90
2019-06-25T05:31:05.550Z,86.10
2019-06-25T05:33:35.963Z,86.10
2019-06-25T05:36:25.347Z,86.20
2019-06-25T05:38:55.750Z,86.40
2019-06-25T05:41:26.209Z,86.40
2019-06-25T05:43:56.753Z,86.50
2019-06-25T05:46:27.239Z,86.80
2019-06-25T05:48:57.785Z,86.90
2019-06-25T05:51:28.381Z,87.00
2019-06-25T05:53:58.977Z,87.00
2019-06-25T05:56:29.392Z,86.90
2019-06-25T05:58:59.806Z,87.10
2019-06-25T06:01:30.198Z,87.00
2019-06-25T06:04:00.649Z,87.10
2019-06-25T06:06:31.133Z,87.10
2019-06-25T06:09:01.569Z,87.00
2019-06-25T06:11:31.950Z,87.00
2019-06-25T06:14:02.373Z,87.10
2019-06-25T06:16:32.859Z,87.20
2019-06-25T06:19:03.261Z,87.20
2019-06-25T06:21:33.709Z,87.20
2019-06-25T06:24:04.508Z,87.20
2019-06-25T06:26:34.931Z,87.30
2019-06-25T06:29:05.752Z,87.10
2019-06-25T06:31:36.231Z,87.00
2019-06-25T06:34:06.660Z,86.90
2019-06-25T06:36:37.071Z,86.80
2019-06-25T06:39:13.339Z,86.80
2019-06-25T06:41:42.318Z,86.60
2019-06-25T06:44:12.708Z,86.60
2019-06-25T06:46:43.135Z,86.50
2019-06-25T06:49:13.531Z,86.40
2019-06-25T06:51:43.928Z,86.20
2019-06-25T06:54:14.407Z,86.20
2019-06-25T06:56:45.435Z,86.00
2019-06-25T06:59:15.845Z,85.60
2019-06-25T07:01:46.257Z,85.50
2019-06-25T07:04:16.678Z,85.30
2019-06-25T07:06:47.142Z,85.00
2019-06-25T07:09:17.604Z,84.90
2019-06-25T07:11:49.698Z,84.80
2019-06-25T07:14:20.097Z,84.60
2019-06-25T07:16:50.488Z,84.40
2019-06-25T07:19:21.009Z,84.30
2019-06-25T07:21:51.425Z,84.00
2019-06-25T07:24:21.827Z,83.90
2019-06-25T07:26:52.906Z,84.40
2019-06-25T07:29:23.322Z,83.50
2019-06-25T07:31:53.779Z,83.20
2019-06-25T07:34:24.174Z,83.00
2019-06-25T07:36:54.829Z,82.90
2019-06-25T07:39:25.237Z,82.70
2019-06-25T07:41:55.747Z,82.40
2019-06-25T07:44:26.167Z,82.10
2019-06-25T07:46:56.595Z,81.90
2019-06-25T07:49:27.021Z,81.60
2019-06-25T07:51:57.414Z,81.20
2019-06-25T07:54:28.239Z,80.60
2019-06-25T07:56:58.641Z,80.30
2019-06-25T07:59:29.103Z,79.80
2019-06-25T08:01:59.546Z,79.40
2019-06-25T08:04:30.443Z,79.20
2019-06-25T08:07:00.960Z,79.00
2019-06-25T08:09:31.384Z,78.70
2019-06-25T08:12:01.839Z,78.80
2019-06-25T08:14:32.254Z,78.70
2019-06-25T08:17:02.719Z,78.70
2019-06-25T08:19:33.190Z,78.70
2019-06-25T08:22:03.722Z,78.50
2019-06-25T08:24:34.201Z,78.30
2019-06-25T08:27:05.128Z,78.10
2019-06-25T08:29:36.850Z,77.80
2019-06-25T08:32:07.260Z,77.60
2019-06-25T08:34:42.005Z,77.40
2019-06-25T08:37:09.826Z,77.10
2019-06-25T08:39:40.241Z,76.60
2019-06-25T08:42:10.627Z,76.20
2019-06-25T08:44:41.013Z,75.80
2019-06-25T08:47:11.429Z,75.70
2019-06-25T08:49:41.900Z,75.50
2019-06-25T08:52:12.395Z,75.30
2019-06-25T08:54:42.771Z,75.20
2019-06-25T08:57:13.210Z,75.00
2019-06-25T08:59:43.828Z,74.70
2019-06-25T09:02:14.227Z,74.50
2019-06-25T09:04:57.350Z,74.20
2019-06-25T09:07:16.771Z,73.90
2019-06-25T09:09:47.182Z,73.40
2019-06-25T09:12:17.614Z,73.00
2019-06-25T09:14:48.526Z,72.90
2019-06-25T09:17:18.959Z,72.70
2019-06-25T09:19:50.728Z,72.50
2019-06-25T09:22:21.658Z,72.20
2019-06-25T09:24:52.131Z,71.90
2019-06-25T09:27:22.934Z,71.50
2019-06-25T09:29:53.322Z,71.30
2019-06-25T09:32:23.715Z,71.30
2019-06-25T09:34:54.089Z,71.10
2019-06-25T09:37:24.522Z,71.20
2019-06-25T09:39:52.474Z,71.10
2019-06-25T09:42:20.470Z,70.90
2019-06-25T09:44:48.484Z,70.70
2019-06-25T09:47:20.035Z,70.50
2019-06-25T09:49:51.717Z,70.00
2019-06-25T09:52:22.114Z,69.80
2019-06-25T09:54:52.533Z,69.60
2019-06-25T09:57:22.956Z,69.60
2019-06-25T09:59:53.379Z,69.30
2019-06-25T10:02:23.769Z,68.80
2019-06-25T10:04:54.190Z,68.50
2019-06-25T10:07:24.586Z,68.10
2019-06-25T10:09:55.004Z,67.50
2019-06-25T10:12:25.413Z,67.10
2019-06-25T10:14:55.824Z,66.80
2019-06-25T10:17:26.234Z,66.30
2019-06-25T10:19:56.701Z,65.90
2019-06-25T10:22:27.114Z,65.20
2019-06-25T10:24:57.545Z,64.70
2019-06-25T10:27:27.977Z,64.10
2019-06-25T10:29:58.512Z,63.80
2019-06-25T10:32:28.934Z,63.00
2019-06-25T10:35:02.564Z,62.40
2019-06-25T10:37:31.488Z,62.10
2019-06-25T10:40:01.900Z,61.60
2019-06-25T10:42:32.300Z,61.20
2019-06-25T10:45:02.908Z,60.50
2019-06-25T10:47:33.270Z,59.80
2019-06-25T10:50:03.801Z,59.20
2019-06-25T10:52:34.234Z,58.90
2019-06-25T10:55:04.726Z,58.10
2019-06-25T10:57:35.137Z,57.50
2019-06-25T11:00:07.367Z,56.80
2019-06-25T11:02:37.815Z,56.50
2019-06-25T11:05:08.561Z,56.00
2019-06-25T11:07:39.309Z,55.60
2019-06-25T11:10:10.051Z,55.40
2019-06-25T11:12:40.435Z,54.80
2019-06-25T11:15:11.776Z,54.20
2019-06-25T11:17:43.312Z,53.90
2019-06-25T11:20:14.179Z,53.60
2019-06-25T11:22:44.586Z,53.30
2019-06-25T11:25:15.101Z,52.90
2019-06-25T11:27:45.572Z,52.40
2019-06-25T11:30:16.799Z,51.90
2019-06-25T11:32:47.205Z,51.70
2019-06-25T11:35:17.651Z,51.30
2019-06-25T11:37:48.212Z,51.00
2019-06-25T11:40:24.644Z,50.40
2019-06-25T11:42:55.057Z,49.80
2019-06-25T11:45:25.478Z,49.40
2019-06-25T11:47:55.885Z,49.30
2019-06-25T11:50:26.308Z,49.10
2019-06-25T11:52:56.687Z,48.20
2019-06-25T11:55:27.195Z,47.40
2019-06-25T11:57:57.598Z,46.90
2019-06-25T12:00:29.147Z,46.60
2019-06-25T12:02:59.697Z,46.50
2019-06-25T12:05:30.085Z,47.30
2019-06-25T12:08:00.530Z,46.70
2019-06-25T12:10:31.059Z,46.20
2019-06-25T12:13:01.553Z,45.40
2019-06-25T12:15:31.882Z,45.00
2019-06-25T12:18:02.325Z,44.60
2019-06-25T12:20:32.782Z,44.10
2019-06-25T12:23:03.168Z,43.70
2019-06-25T12:25:33.570Z,43.90
2019-06-25T12:28:04.011Z,43.50
2019-06-25T12:30:34.423Z,42.90
2019-06-25T12:33:05.155Z,42.10
2019-06-25T12:35:35.549Z,41.80
2019-06-25T12:38:05.934Z,40.90
2019-06-25T12:40:36.370Z,39.80
2019-06-25T12:43:06.738Z,38.30
2019-06-25T12:45:37.262Z,36.90
2019-06-25T12:48:07.691Z,36.10
2019-06-25T12:50:38.098Z,35.60
2019-06-25T12:53:08.504Z,35.40
2019-06-25T12:55:38.930Z,35.40
2019-06-25T12:58:09.318Z,35.60
2019-06-25T13:00:39.733Z,35.60
2019-06-25T13:03:10.182Z,35.80
2019-06-25T13:05:40.647Z,35.90
2019-06-25T13:08:11.465Z,36.10
2019-06-25T13:10:44.511Z,36.30
2019-06-25T13:13:14.057Z,36.50
2019-06-25T13:15:44.520Z,36.60
2019-06-25T13:18:18.123Z,36.70
2019-06-25T13:20:47.305Z,37.00
2019-06-25T13:23:17.883Z,37.10
2019-06-25T13:25:48.787Z,37.10
2019-06-25T13:28:19.197Z,37.20
2019-06-25T13:30:49.622Z,37.30
2019-06-25T13:33:20.080Z,37.40
2019-06-25T13:35:50.493Z,37.90
2019-06-25T13:38:20.896Z,37.10
2019-06-25T13:40:51.564Z,37.00
2019-06-25T13:43:22.030Z,36.90
2019-06-25T13:45:52.608Z,36.70
2019-06-25T13:48:23.383Z,36.50
2019-06-25T13:50:57.513Z,36.60
2019-06-25T13:53:25.923Z,36.70
2019-06-25T13:55:56.353Z,36.40
2019-06-25T13:58:26.827Z,36.20
2019-06-25T14:00:57.265Z,36.10
2019-06-25T14:03:27.619Z,36.20
2019-06-25T14:05:58.098Z,36.60
2019-06-25T14:08:28.522Z,36.60
2019-06-25T14:10:58.954Z,35.90
2019-06-25T14:13:29.420Z,35.00
2019-06-25T14:15:59.747Z,35.40
2019-06-25T14:18:30.159Z,34.40
2019-06-25T14:21:00.577Z,33.60
2019-06-25T14:23:31.055Z,33.40
2019-06-25T14:26:10.349Z,31.50
2019-06-25T14:28:33.591Z,30.10
2019-06-25T14:31:04.029Z,29.30
2019-06-25T14:33:34.476Z,28.50
2019-06-25T14:36:04.904Z,28.00
2019-06-25T14:38:35.357Z,27.40
2019-06-25T14:41:05.850Z,26.70
2019-06-25T14:43:36.249Z,26.30
2019-06-25T14:46:06.693Z,25.70
2019-06-25T14:48:37.095Z,25.40
2019-06-25T14:51:07.539Z,25.00
2019-06-25T14:53:38.040Z,24.50
2019-06-25T14:56:08.673Z,24.10
2019-06-25T14:58:39.109Z,23.90
2019-06-25T15:01:09.567Z,24.00
2019-06-25T15:03:40.012Z,24.00
2019-06-25T15:06:10.650Z,23.90
2019-06-25T15:08:41.086Z,23.80
2019-06-25T15:11:14.319Z,23.70
2019-06-25T15:13:44.750Z,23.60
2019-06-25T15:16:15.181Z,23.40
2019-06-25T15:18:45.617Z,23.20
2019-06-25T15:21:16.055Z,23.00
2019-06-25T15:23:46.498Z,22.90
2019-06-25T15:26:16.908Z,22.80
2019-06-25T15:28:47.396Z,22.50
2019-06-25T15:31:17.903Z,22.40
2019-06-25T15:33:48.332Z,22.40
2019-06-25T15:36:18.762Z,22.40
2019-06-25T15:38:49.206Z,22.00
2019-06-25T15:41:19.629Z,22.00
2019-06-25T15:43:50.104Z,21.80
2019-06-25T15:46:20.571Z,21.80
2019-06-25T15:48:50.958Z,21.80
2019-06-25T15:51:21.801Z,21.70
2019-06-25T15:53:52.601Z,21.50
2019-06-25T15:56:23.064Z,21.30
2019-06-25T15:58:53.493Z,21.10
2019-06-25T16:01:23.914Z,20.90
2019-06-25T16:03:54.342Z,20.90
2019-06-25T16:06:25.620Z,21.10
2019-06-25T16:09:03.252Z,21.00
2019-06-25T16:11:28.416Z,20.90
2019-06-25T16:13:58.801Z,20.90
2019-06-25T16:16:29.198Z,20.40
2019-06-25T16:18:59.642Z,20.90
2019-06-25T16:21:30.050Z,21.00
2019-06-25T16:24:00.490Z,21.00
2019-06-25T16:26:30.902Z,20.90
2019-06-25T16:29:01.330Z,20.80
2019-06-25T16:31:31.744Z,20.80
2019-06-25T16:34:02.210Z,21.00
2019-06-25T16:36:32.659Z,21.10
2019-06-25T16:39:17.676Z,21.10
2019-06-25T16:41:35.367Z,21.30
2019-06-25T16:44:08.761Z,21.30
2019-06-25T16:46:39.214Z,21.30
2019-06-25T16:49:09.646Z,21.30
2019-06-25T16:51:40.078Z,21.40
2019-06-25T16:54:11.583Z,21.60
2019-06-25T16:56:42.002Z,21.60
2019-06-25T16:59:12.453Z,21.80
2019-06-25T17:01:43.014Z,22.00
2019-06-25T17:04:13.474Z,22.30
2019-06-25T17:06:44.864Z,22.30
2019-06-25T17:09:15.257Z,22.50
2019-06-25T17:11:47.265Z,22.90
2019-06-25T17:14:17.806Z,23.30
2019-06-25T17:16:48.412Z,23.50
2019-06-25T17:19:18.836Z,23.80
2019-06-25T17:21:49.296Z,23.80
2019-06-25T17:24:19.735Z,23.80
2019-06-25T17:26:50.139Z,24.30
2019-06-25T17:29:20.591Z,24.70
2019-06-25T17:31:51.043Z,24.90
2019-06-25T17:34:21.510Z,25.10
2019-06-25T17:36:51.902Z,25.60
2019-06-25T17:39:22.457Z,26.00
2019-06-25T17:41:53.021Z,26.30
2019-06-25T17:44:32.290Z,26.60
2019-06-25T17:47:02.728Z,27.00
2019-06-25T17:49:33.296Z,27.70
2019-06-25T17:52:03.708Z,28.60
2019-06-25T17:54:34.257Z,29.70
2019-06-25T17:57:04.763Z,31.00
2019-06-25T17:59:35.159Z,32.00
2019-06-25T18:02:06.321Z,32.80
2019-06-25T18:04:37.619Z,33.70
2019-06-25T18:07:08.026Z,34.60
2019-06-25T18:09:40.775Z,35.60
2019-06-25T18:12:10.815Z,36.60
2019-06-25T18:14:41.285Z,37.60
2019-06-25T18:17:11.797Z,38.40
2019-06-25T18:19:43.958Z,39.20
2019-06-25T18:22:14.753Z,39.90
2019-06-25T18:24:46.325Z,40.80
2019-06-25T18:27:16.806Z,41.60
2019-06-25T18:29:47.215Z,43.10
2019-06-25T18:32:17.642Z,43.50
2019-06-25T18:34:50.520Z,44.30
2019-06-25T18:37:21.133Z,45.20
2019-06-25T18:39:51.668Z,46.00
2019-06-25T18:42:22.503Z,46.60
2019-06-25T18:45:03.825Z,47.20
2019-06-25T18:47:29.401Z,47.80
2019-06-25T18:50:00.097Z,48.40
2019-06-25T18:52:32.990Z,48.80
2019-06-25T18:55:04.382Z,49.30
2019-06-25T18:57:35.934Z,49.80
2019-06-25T19:00:10.267Z,50.30
2019-06-25T19:02:58.737Z,50.90
2019-06-25T19:05:29.620Z,51.40
2019-06-25T19:08:00.347Z,51.80
2019-06-25T19:10:40.470Z,52.50
2019-06-25T19:13:04.892Z,53.10
2019-06-25T19:15:38.716Z,53.40
2019-06-25T19:18:09.388Z,54.00
2019-06-25T19:20:40.067Z,54.40
2019-06-25T19:23:31.406Z,54.90
2019-06-25T19:26:08.105Z,55.20
2019-06-25T19:28:42.481Z,55.50
2019-06-25T19:31:13.633Z,56.00
2019-06-25T19:33:45.325Z,56.40
2019-06-25T19:36:28.893Z,56.80
2019-06-25T19:39:01.532Z,57.10
2019-06-25T19:41:32.275Z,57.40
2019-06-25T19:44:19.280Z,57.70
2019-06-25T19:47:05.130Z,58.10
2019-06-25T19:49:36.505Z,58.30
2019-06-25T19:52:06.956Z,58.60
2019-06-25T19:54:39.399Z,58.90
2019-06-25T19:57:13.640Z,59.30
2019-06-25T19:59:51.935Z,59.60
2019-06-25T20:02:22.374Z,59.80
2019-06-25T20:05:06.305Z,60.00
2019-06-25T20:07:45.458Z,60.30
2019-06-25T20:10:18.752Z,60.50
2019-06-25T20:12:51.196Z,60.70
2019-06-25T20:15:43.450Z,61.00
2019-06-25T20:18:17.457Z,61.40
2019-06-25T20:20:47.899Z,61.60
2019-06-25T20:23:20.873Z,62.00
2019-06-25T20:26:07.760Z,62.40
2019-06-25T20:28:46.694Z,62.80
2019-06-25T20:31:23.775Z,63.00
2019-06-25T20:33:58.082Z,64.10
2019-06-25T20:36:35.141Z,63.50
2019-06-25T20:39:07.438Z,63.80
2019-06-25T20:41:37.983Z,64.10
2019-06-25T20:44:08.431Z,64.40
2019-06-25T20:46:38.869Z,64.80
2019-06-25T20:49:10.609Z,65.10
2019-06-25T20:51:41.792Z,65.30
2019-06-25T20:54:12.255Z,65.60
2019-06-25T20:56:42.680Z,66.70
2019-06-25T20:59:13.205Z,65.90
2019-06-25T21:01:43.734Z,66.10
2019-06-25T21:04:14.214Z,66.40
2019-06-25T21:06:44.653Z,66.60
2019-06-25T21:09:15.925Z,66.80
2019-06-25T21:11:48.845Z,67.20
2019-06-25T21:14:18.508Z,67.50
2019-06-25T21:16:48.907Z,67.90
2019-06-25T21:19:19.297Z,67.90
2019-06-25T21:21:49.791Z,68.20
2019-06-25T21:24:20.214Z,68.40
2019-06-25T21:26:50.700Z,68.70
2019-06-25T21:29:21.106Z,68.80
2019-06-25T21:31:51.566Z,69.00
2019-06-25T21:34:21.983Z,69.30
2019-06-25T21:36:52.537Z,69.40
2019-06-25T21:39:23.005Z,69.60
2019-06-25T21:42:04.229Z,69.80
2019-06-25T21:44:25.679Z,70.00
2019-06-25T21:47:06.409Z,70.30
2019-06-25T21:49:28.235Z,70.50
2019-06-25T21:51:58.791Z,70.60
2019-06-25T21:54:29.209Z,70.60
2019-06-25T21:56:59.691Z,70.80
2019-06-25T21:59:30.094Z,70.90
2019-06-25T22:02:02.197Z,71.00
2019-06-25T22:04:32.607Z,71.10
2019-06-25T22:07:03.125Z,71.30
2019-06-25T22:09:33.510Z,71.60
2019-06-25T22:12:17.185Z,71.80
2019-06-25T22:14:36.051Z,71.90
2019-06-25T22:17:06.475Z,72.00
2019-06-25T22:19:36.878Z,72.00
2019-06-25T22:22:19.290Z,72.10
2019-06-25T22:24:39.458Z,72.10
2019-06-25T22:27:09.901Z,72.50
2019-06-25T22:29:40.300Z,72.40
2019-06-25T22:32:10.723Z,72.60
2019-06-25T22:34:41.123Z,72.80
2019-06-25T22:37:11.571Z,72.90
2019-06-25T22:39:45.733Z,73.10
2019-06-25T22:42:14.098Z,73.30
2019-06-25T22:44:44.643Z,73.30
2019-06-25T22:47:15.053Z,73.40
2019-06-25T22:49:45.482Z,73.50
2019-06-25T22:52:15.868Z,73.70
2019-06-25T22:54:46.321Z,73.70
2019-06-25T22:57:16.739Z,73.80
2019-06-25T22:59:48.006Z,73.80
2019-06-25T23:02:18.414Z,74.10
2019-06-25T23:04:48.834Z,74.30
2019-06-25T23:07:19.277Z,74.40
2019-06-25T23:09:49.859Z,74.50
2019-06-25T23:12:20.266Z,74.60
2019-06-25T23:14:50.676Z,74.60
2019-06-25T23:17:21.087Z,74.80
2019-06-25T23:19:51.463Z,75.00
2019-06-25T23:22:21.875Z,75.10
2019-06-25T23:24:52.537Z,75.10
2019-06-25T23:27:22.917Z,75.30
2019-06-25T23:29:53.325Z,75.30
2019-06-25T23:32:23.717Z,75.50
2019-06-25T23:34:54.217Z,75.60
2019-06-25T23:37:24.661Z,75.80
2019-06-25T23:39:55.082Z,75.80
2019-06-25T23:42:25.456Z,75.90
2019-06-25T23:44:55.853Z,75.90
2019-06-25T23:47:26.339Z,76.00
2019-06-25T23:49:56.788Z,76.10
2019-06-25T23:52:27.175Z,76.20
2019-06-25T23:54:57.575Z,76.20
2019-06-25T23:57:28.059Z,76.20
2019-06-25T23:59:58.425Z,76.20
